Tiempo atmosférico en la estación meteorológica de Alpedrete, Madrid (924 m.)

Fecha
DESCASC
Temp. máxima en grados centígrados (hora)
DESCASC
Temp. mínima en grados centígrados (hora)
DESCASC
Temp. media en grados centígrados
DESCASC
Racha de viento máxima en m/sg (hora)
DESCASC
Velocidad máxima media en intervalos de 10 minutos(hora)
DESCASC
Precipitaciones diarias en mm
DESCASC
Precipitaciones de 00:00 a 06:00 en mm
DESCASC
Precipitaciones de 06:00 a 12:00 en mm
DESCASC
Precipitaciones de 12:00 a 18:00 en mm
DESCASC
Precipitaciones de 18:00 a 24:00 en mm
DESCASC
24-09-2017 -- (--) -- (--) -- -- (--) -- (--) -- 0 0 0 --
23-09-2017 27.8 (16:20) 11.4 (08:10) 19.6 5 (15:20) 1.94 (01:30) 0 0 0 0 0
22-09-2017 25.6 (14:30) 13.1 (08:20) 19.4 6.67 (18:20) 3.89 (17:20) 1.2 0 0 0 1.2
21-09-2017 27.5 (16:20) 11.2 (00:00) 19.3 8.61 (15:00) 4.17 (21:20) 0 0 0 0 0
20-09-2017 27.7 (17:40) 8.4 (00:00) 18.1 5 (14:00) 1.94 (16:30) 0 0 0 0 0
19-09-2017 25.7 (17:00) 11.3 (00:00) 18.5 8.33 (17:30) 5 (17:50) 0 0 0 0 0
18-09-2017 20.7 (17:30) 10.8 (00:00) 15.8 11.67 (10:50) 6.94 (07:20) 0 0 0 0 0
17-09-2017 22.3 (18:30) 7.2 (00:00) 14.7 7.5 (18:40) 4.72 (18:40) 0 0 0 0 0
16-09-2017 18.4 (12:20) 6.8 (00:00) 12.6 9.17 (15:20) 5 (15:20) 0 0 0 0 0
15-09-2017 19.6 (16:40) 10.5 (00:00) 15.1 11.11 (11:50) 5.83 (12:50) 0 0 0 0 0
14-09-2017 26.6 (17:30) 17.2 (00:00) 21.9 11.67 (03:20) 6.94 (10:40) 0 0 0 0 0
13-09-2017 29.7 (17:20) 12.1 (00:00) 20.9 6.39 (17:40) 2.5 (18:10) 0 0 0 0 0
12-09-2017 24.9 (17:40) 13.6 (00:00) 19.3 9.72 (02:10) 6.39 (04:10) 0 0 0 0 0
11-09-2017 26.6 (17:10) 15.7 (00:00) 21.2 13.61 (11:00) 8.61 (11:30) 0 0 0 0 0
10-09-2017 21.8 (16:40) 9.3 (00:00) 15.5 11.94 (01:50) 6.67 (13:10) 0 0 0 0 0
09-09-2017 21.4 (00:00) 14.1 (00:00) 17.8 16.39 (06:30) 9.17 (07:10) 0 0 0 0 0
08-09-2017 30.9 (17:40) 12.3 (00:00) 21.6 8.06 (17:20) 4.17 (22:30) 0 0 0 0 0
07-09-2017 29.2 (17:00) 13.3 (00:00) 21.3 7.5 (06:10) 3.89 (19:00) 0 0 0 0 0
06-09-2017 31.6 (15:20) 17.2 (00:00) 24.4 7.22 (18:20) 4.44 (22:40) 0 0 0 0 0
05-09-2017 31.1 (18:10) 14.9 (00:00) 23 5.83 (15:50) 2.5 (17:10) 0 0 0 0 0
04-09-2017 29.6 (17:30) 16.5 (00:00) 23.1 11.67 (02:00) 6.39 (04:00) 0 0 0 0 0
03-09-2017 30.3 (17:00) 14.9 (00:00) 22.6 8.33 (17:00) 5.28 (23:59) 0 0 0 0 0
02-09-2017 28.2 (18:30) 8.9 (00:00) 18.6 4.72 (16:20) 2.5 (00:10) 0 0 0 0 0
01-09-2017 26.2 (13:50) 14.2 (00:00) 20.2 8.33 (19:30) 5 (19:20) 0 0 0 0 0
31-08-2017 27.7 (18:00) 15.6 (00:00) 21.7 7.78 (01:50) 3.89 (04:40) 0.4 0.4 0 0 0
30-08-2017 25.3 (15:30) 15.9 (00:00) 20.6 7.5 (17:20) 4.17 (23:20) 0 0 0 0 0
29-08-2017 25.2 (16:40) 14.4 (00:00) 19.8 6.67 (16:10) 3.89 (20:30) 0 0 0 0 0
28-08-2017 20.1 (00:00) 14.8 (00:00) 17.5 8.61 (13:00) 5 (13:00) 45.4 0.2 11.4 32.8 1
27-08-2017 25.1 (16:20) 16.1 (00:00) 20.6 11.11 (19:20) 6.39 (19:20) 8.4 0 0.6 7.8 0
26-08-2017 30.9 (13:50) 17.7 (00:00) 24.3 10.83 (16:00) 4.44 (15:30) 0 0 0 0 0

Gráficas

Temp. máximas Temp. mínimas Temp. medias Precipitaciones Rachas de viento máximas Velocidades máximas media en intervalos de 10 minutos

Datos horarios

Fecha y hora oficial Temperatura (ºC) Velocidad del viento (km/h) Dirección del viento Racha (km/h) Dirección de racha Precipitación (mm) Presión (hPa) Tendencia (hPa) Humedad (%)
2017-09-24 23:00:00 20.3 6 Noroeste 13 Noroeste 0 -- -- 34
2017-09-24 22:00:00 20.5 5 Noroeste 9 Noroeste 0 -- -- 37
2017-09-24 21:00:00 21.6 3 Noroeste 7 Sudoeste 0 -- -- 39
2017-09-24 20:00:00 24.2 3 Sudoeste 17 Sur 0 -- -- 33
2017-09-24 19:00:00 27.3 7 Sudoeste 21 Sur 0 -- -- 27
2017-09-24 18:00:00 28.3 8 Sudoeste 25 Sudeste 0 -- -- 25
2017-09-24 17:00:00 28.1 9 Sur 26 Sudoeste 0 -- -- 27
2017-09-24 16:00:00 28.2 8 Sudoeste 21 Sudeste 0 -- -- 28
2017-09-24 15:00:00 27.1 12 Sur 24 Sur 0 -- -- 29
2017-09-24 14:00:00 26.8 8 Sudoeste 21 Oeste 0 -- -- 31
2017-09-24 13:00:00 25.8 7 Sudeste 17 Este 0 -- -- 32
2017-09-24 12:00:00 26 3 Sudoeste 12 Oeste 0 -- -- 33
2017-09-24 11:00:00 24.3 2 Sudeste 9 Sur 0 -- -- 37
2017-09-24 10:00:00 20.3 2 Oeste 4 Noroeste 0 -- -- 47
2017-09-24 09:00:00 15.2 0 Calma 4 Noroeste 0 -- -- 57
2017-09-24 08:00:00 12.8 0 Calma 4 Noroeste 0 -- -- 65
2017-09-24 07:00:00 13.8 0 Calma 4 Oeste 0 -- -- 61
2017-09-24 06:00:00 14.7 2 Noroeste 5 Noroeste 0 -- -- 57
2017-09-24 05:00:00 16.1 2 Norte 6 Norte 0 -- -- 52
2017-09-24 04:00:00 16.3 0 Calma 10 Noroeste 0 -- -- 53
2017-09-24 03:00:00 16.9 6 Noroeste 10 Norte 0 -- -- 50
2017-09-24 02:00:00 16.3 4 Noroeste 8 Noroeste 0 -- -- 53
2017-09-24 01:00:00 14.9 0 Calma 8 Norte 0 -- -- 61
2017-09-24 00:00:00 15.7 0 Calma 9 Sudoeste 0 -- -- 59
2017-09-23 23:00:00 17.2 3 Noroeste 8 Sudoeste 0 -- -- 57
2017-09-23 22:00:00 18.6 0 Calma 4 Norte 0 -- -- 51
2017-09-23 21:00:00 20.5 0 Calma 6 Norte 0 -- -- 44
2017-09-23 20:00:00 23.3 3 Sudoeste 13 Sur 0 -- -- 36
2017-09-23 19:00:00 25.4 6 Sur 17 Sur 0 -- -- 32
2017-09-23 18:00:00 26.7 6 Oeste 17 Sur 0 -- -- 32
2017-09-23 17:00:00 26.7 5 Sur 18 Sudoeste 0 -- -- 32
2017-09-23 16:00:00 27.3 4 Sur 18 Sudoeste 0 -- -- 33
2017-09-23 15:00:00 25.9 5 Sudeste 17 Sur 0 -- -- 37
2017-09-23 14:00:00 24.8 5 Sur 15 Sudoeste 0 -- -- 42
2017-09-23 13:00:00 24.4 4 Sudoeste 11 Sudeste 0 -- -- 43
2017-09-23 12:00:00 22.1 4 Oeste 10 Este 0 -- -- 47
2017-09-23 11:00:00 22.1 2 Oeste 6 Sudeste 0 -- -- 48
2017-09-23 10:00:00 20.3 0 Calma 4 Noroeste 0 -- -- 58
2017-09-23 09:00:00 14.6 0 Calma 4 Noroeste 0 -- -- 74
2017-09-23 08:00:00 11.5 0 Calma 4 Norte 0 -- -- 86
2017-09-23 07:00:00 11.8 0 Calma 5 Norte 0 -- -- 86
2017-09-23 06:00:00 12.5 0 Calma 4 Norte 0 -- -- 82
2017-09-23 05:00:00 13.1 0 Calma 8 Este 0 -- -- 81
2017-09-23 04:00:00 13.9 0 Calma 5 Este 0 -- -- 79
2017-09-23 03:00:00 15.7 0 Calma 9 Este 0 -- -- 67
2017-09-23 02:00:00 16.2 4 Este 13 Este 0 -- -- 62
2017-09-23 01:00:00 17.4 6 Este 12 Este 0 -- -- 50
2017-09-23 00:00:00 14.5 5 Sudeste 14 Sudeste 0 -- -- 62
2017-09-22 23:00:00 14 2 Oeste 8 Oeste 0 -- -- 69
2017-09-22 22:00:00 13.4 0 Calma 6 Norte 0 -- -- 82
2017-09-22 21:00:00 14.1 4 Nordeste 18 Noroeste 0 -- -- 79
2017-09-22 20:00:00 16 4 Noroeste 18 Oeste 0.6 -- -- 72
2017-09-22 19:00:00 16.6 8 Noroeste 24 Oeste 0.6 -- -- 73
2017-09-22 18:00:00 20.6 7 Este 21 Este 0 -- -- 54
2017-09-22 17:00:00 22.1 10 Este 19 Sur 0 -- -- 46
2017-09-22 16:00:00 23.1 10 Sudeste 20 Sudeste 0 -- -- 43
2017-09-22 15:00:00 25 9 Sur 23 Sudeste 0 -- -- 39
2017-09-22 14:00:00 25 4 Este 14 Este 0 -- -- 42
2017-09-22 13:00:00 23.1 5 Sudoeste 15 Sudeste 0 -- -- 46
2017-09-22 12:00:00 21.3 8 Este 21 Nordeste 0 -- -- 50
2017-09-22 11:00:00 19.7 11 Este 20 Este 0 -- -- 51
2017-09-22 10:00:00 18.9 8 Este 16 Este 0 -- -- 52
2017-09-22 09:00:00 16 0 Calma 9 Este 0 -- -- 53
2017-09-22 08:00:00 13.6 0 Calma 5 Nordeste 0 -- -- 59
2017-09-22 07:00:00 16.8 3 Nordeste 9 Nordeste 0 -- -- 47
2017-09-22 06:00:00 14.8 2 Noroeste 6 Nordeste 0 -- -- 53
2017-09-22 05:00:00 16.2 3 Norte 9 Noroeste 0 -- -- 49
2017-09-22 04:00:00 17.6 3 Noroeste 12 Sudeste 0 -- -- 46
2017-09-22 03:00:00 18 6 Este 12 Sudeste 0 -- -- 46
2017-09-22 02:00:00 18.6 2 Norte 13 Oeste 0 -- -- 44
2017-09-22 01:00:00 19.4 7 Noroeste 18 Noroeste 0 -- -- 43
2017-09-22 00:00:00 19.3 3 Norte 16 Oeste 0 -- -- 42
2017-09-21 23:00:00 19.8 5 Noroeste 20 Noroeste 0 -- -- 42
2017-09-21 22:00:00 20.6 9 Noroeste 27 Noroeste 0 -- -- 41
2017-09-21 21:00:00 21.4 13 Noroeste 23 Noroeste 0 -- -- 37
2017-09-21 20:00:00 23.4 4 Oeste 14 Sudoeste 0 -- -- 30
2017-09-21 19:00:00 25.1 7 Sur 17 Sur 0 -- -- 28
2017-09-21 18:00:00 26.5 8 Sur 22 Sur 0 -- -- 27
2017-09-21 17:00:00 27.1 8 Sur 27 Sur 0 -- -- 26
2017-09-21 16:00:00 27.2 10 Sur 26 Sudeste 0 -- -- 26
2017-09-21 15:00:00 26.4 9 Sudoeste 31 Sudoeste 0 -- -- 27
2017-09-21 14:00:00 26.1 11 Sur 23 Sur 0 -- -- 28
2017-09-21 13:00:00 25.5 6 Sudeste 21 Sur 0 -- -- 28
2017-09-21 12:00:00 23.9 5 Sudeste 11 Sudeste 0 -- -- 31
2017-09-21 11:00:00 22.3 3 Sudoeste 7 Sur 0 -- -- 33
2017-09-21 10:00:00 21.3 0 Calma 5 Norte 0 -- -- 32
2017-09-21 09:00:00 13.3 0 Calma 5 Noroeste 0 -- -- 53
2017-09-21 08:00:00 11.3 0 Calma 4 Norte 0 -- -- 58
2017-09-21 07:00:00 12.1 0 Calma 3 Norte 0 -- -- 55
2017-09-21 06:00:00 12.3 0 Calma 5 Norte 0 -- -- 52
2017-09-21 05:00:00 13 0 Calma 5 Norte 0 -- -- 51
2017-09-21 04:00:00 13.3 0 Calma 2 Norte 0 -- -- 50
2017-09-21 03:00:00 13.4 0 Calma 6 Norte 0 -- -- 49
2017-09-21 02:00:00 13.9 0 Calma 7 Norte 0 -- -- 48
2017-09-21 01:00:00 14.6 0 Calma 5 Norte 0 -- -- 46
2017-09-21 00:00:00 15.7 0 Calma 4 Noroeste 0 -- -- 43
2017-09-20 23:00:00 15.6 3 Norte 6 Norte 0 -- -- 43
2017-09-20 22:00:00 17.9 0 Calma 6 Norte 0 -- -- 38
2017-09-20 21:00:00 20.2 3 Norte 8 Noroeste 0 -- -- 33
2017-09-20 20:00:00 24.5 2 Sur 12 Sudoeste 0 -- -- 26
2017-09-20 19:00:00 26.7 5 Sudoeste 17 Sur 0 -- -- 23
2017-09-20 18:00:00 27.5 6 Sudoeste 17 Sudoeste 0 -- -- 21
2017-09-20 17:00:00 27 7 Sur 16 Sur 0 -- -- 22
2017-09-20 16:00:00 27.3 4 Sur 12 Sur 0 -- -- 22
2017-09-20 15:00:00 25.9 5 Sur 16 Sudeste 0 -- -- 23
2017-09-20 14:00:00 24.6 6 Sur 18 Sudoeste 0 -- -- 23
2017-09-20 13:00:00 24.5 4 Sur 9 Sur 0 -- -- 23
2017-09-20 12:00:00 22.6 3 Oeste 8 Sudoeste 0 -- -- 27
2017-09-20 11:00:00 21.3 3 Sur 8 Sur 0 -- -- 29
2017-09-20 10:00:00 19.1 0 Calma 3 Este 0 -- -- 36
2017-09-20 09:00:00 13.1 0 Calma 4 Sudoeste 0 -- -- 50
2017-09-20 08:00:00 9.1 0 Calma 5 Norte 0 -- -- 60
2017-09-20 07:00:00 9.4 0 Calma 5 Norte 0 -- -- 59
2017-09-20 06:00:00 9.6 0 Calma 5 Norte 0 -- -- 60
2017-09-20 05:00:00 10.1 0 Calma 5 Norte 0 -- -- 57
2017-09-20 04:00:00 11.1 0 Calma 6 Norte 0 -- -- 56
2017-09-20 03:00:00 11.3 0 Calma 4 Noroeste 0 -- -- 56
2017-09-20 02:00:00 12.4 0 Calma 6 Norte 0 -- -- 53
2017-09-20 01:00:00 13.5 0 Calma 8 Noroeste 0 -- -- 50
2017-09-20 00:00:00 14 3 Norte 8 Noroeste 0 -- -- 48
2017-09-19 23:00:00 16.1 0 Calma 11 Norte 0 -- -- 43
2017-09-19 22:00:00 17.2 3 Noroeste 14 Noroeste 0 -- -- 39
2017-09-19 21:00:00 19.2 8 Noroeste 22 Oeste 0 -- -- 34
2017-09-19 20:00:00 21.7 13 Noroeste 27 Noroeste 0 -- -- 27
2017-09-19 19:00:00 24.3 11 Noroeste 28 Noroeste 0 -- -- 21
2017-09-19 18:00:00 24.7 15 Noroeste 30 Noroeste 0 -- -- 19
2017-09-19 17:00:00 25.7 10 Noroeste 26 Oeste 0 -- -- 19
2017-09-19 16:00:00 24 14 Oeste 26 Oeste 0 -- -- 28
2017-09-19 15:00:00 23.7 11 Oeste 18 Oeste 0 -- -- 30
2017-09-19 14:00:00 23.3 7 Sudoeste 21 Noroeste 0 -- -- 34
2017-09-19 13:00:00 22.4 4 Sudoeste 15 Sudeste 0 -- -- 39
2017-09-19 12:00:00 20.5 5 Sur 13 Sur 0 -- -- 44
2017-09-19 11:00:00 19 5 Sur 12 Sudoeste 0 -- -- 49
2017-09-19 10:00:00 16.9 4 Sudeste 9 Noroeste 0 -- -- 53
2017-09-19 09:00:00 13.7 6 Noroeste 17 Noroeste 0 -- -- 65
2017-09-19 08:00:00 12.3 7 Noroeste 15 Oeste 0 -- -- 69
2017-09-19 07:00:00 11.3 4 Norte 10 Norte 0 -- -- 69
2017-09-19 06:00:00 12.8 6 Noroeste 21 Noroeste 0 -- -- 63
2017-09-19 05:00:00 12.4 10 Noroeste 21 Noroeste 0 -- -- 66
2017-09-19 04:00:00 12 5 Noroeste 14 Norte 0 -- -- 65
2017-09-19 03:00:00 12.4 6 Noroeste 19 Oeste 0 -- -- 62
2017-09-19 02:00:00 13.3 9 Noroeste 13 Noroeste 0 -- -- 59
2017-09-19 01:00:00 14.9 6 Norte 12 Norte 0 -- -- 54
2017-09-19 00:00:00 16 4 Norte 16 Norte 0 -- -- 50
2017-09-18 23:00:00 15 5 Norte 10 Norte 0 -- -- 52
2017-09-18 22:00:00 16.2 2 Norte 8 Norte 0 -- -- 47
2017-09-18 21:00:00 17.1 2 Noroeste 14 Oeste 0 -- -- 44
2017-09-18 20:00:00 18.8 7 Oeste 26 Norte 0 -- -- 40
2017-09-18 19:00:00 20.3 13 Noroeste 32 Oeste 0 -- -- 36
2017-09-18 18:00:00 20.1 16 Noroeste 34 Noroeste 0 -- -- 36
2017-09-18 17:00:00 19.6 18 Noroeste 35 Oeste 0 -- -- 37
2017-09-18 16:00:00 19.6 18 Noroeste 36 Noroeste 0 -- -- 39
2017-09-18 15:00:00 17.8 19 Noroeste 32 Noroeste 0 -- -- 48
2017-09-18 14:00:00 18 15 Noroeste 29 Noroeste 0 -- -- 48
2017-09-18 13:00:00 16.5 17 Noroeste 34 Oeste 0 -- -- 55
2017-09-18 12:00:00 14.7 22 Noroeste 41 Oeste 0 -- -- 63
2017-09-18 11:00:00 14.4 20 Noroeste 42 Noroeste 0 -- -- 63
2017-09-18 10:00:00 14.3 15 Noroeste 36 Noroeste 0 -- -- 59
2017-09-18 09:00:00 13.6 9 Noroeste 24 Oeste 0 -- -- 60
2017-09-18 08:00:00 10.9 10 Oeste 37 Oeste 0 -- -- 66
2017-09-18 07:00:00 11.9 23 Noroeste 39 Oeste 0 -- -- 61
2017-09-18 06:00:00 13 21 Noroeste 35 Oeste 0 -- -- 57
2017-09-18 05:00:00 13.9 17 Noroeste 37 Noroeste 0 -- -- 46
2017-09-18 04:00:00 14.4 13 Noroeste 32 Noroeste 0 -- -- 41
2017-09-18 03:00:00 13.5 4 Oeste 17 Oeste 0 -- -- 40
2017-09-18 02:00:00 14.8 11 Oeste 19 Oeste 0 -- -- 36
2017-09-18 01:00:00 15.1 4 Noroeste 18 Noroeste 0 -- -- 35
2017-09-18 00:00:00 15.7 3 Oeste 16 Oeste 0 -- -- 33
2017-09-17 23:00:00 16 4 Noroeste 11 Norte 0 -- -- 30
2017-09-17 22:00:00 15.4 3 Sudeste 8 Oeste 0 -- -- 34
2017-09-17 21:00:00 17.2 2 Sudoeste 15 Noroeste 0 -- -- 31
2017-09-17 20:00:00 20.6 7 Noroeste 26 Noroeste 0 -- -- 26
2017-09-17 19:00:00 21.6 12 Oeste 27 Noroeste 0 -- -- 26
2017-09-17 18:00:00 21.2 10 Noroeste 21 Oeste 0 -- -- 28
2017-09-17 17:00:00 21.7 9 Oeste 18 Sur 0 -- -- 28
2017-09-17 16:00:00 21.2 9 Sur 21 Sur 0 -- -- 27
2017-09-17 15:00:00 21.5 8 Sur 21 Sudoeste 0 -- -- 26
2017-09-17 14:00:00 21.2 7 Sudeste 18 Sudeste 0 -- -- 28
2017-09-17 13:00:00 20 5 Sudoeste 16 Sur 0 -- -- 30
2017-09-17 12:00:00 19.5 5 Sudoeste 14 Norte 0 -- -- 31
2017-09-17 11:00:00 16.8 5 Oeste 16 Noroeste 0 -- -- 36
2017-09-17 10:00:00 15.4 3 Sudeste 6 Sur 0 -- -- 42
2017-09-17 09:00:00 10.5 2 Sudeste 6 Oeste 0 -- -- 52
2017-09-17 08:00:00 7.4 0 Calma 5 Noroeste 0 -- -- 59
2017-09-17 07:00:00 8.4 0 Calma 9 Noroeste 0 -- -- 54
2017-09-17 06:00:00 7.7 0 Calma 8 Norte 0 -- -- 56
2017-09-17 05:00:00 7.7 0 Calma 10 Norte 0 -- -- 56
2017-09-17 04:00:00 8.7 2 Noroeste 6 Noroeste 0 -- -- 53
2017-09-17 03:00:00 10 0 Calma 10 Noroeste 0 -- -- 48
2017-09-17 02:00:00 10.8 5 Noroeste 8 Noroeste 0 -- -- 45
2017-09-17 01:00:00 10.3 2 Nordeste 8 Oeste 0 -- -- 47
2017-09-17 00:00:00 11.2 3 Oeste 6 Norte 0 -- -- 46
2017-09-16 23:00:00 11.5 0 Calma 5 Noroeste 0 -- -- 44
2017-09-16 22:00:00 12.9 0 Calma 7 Nordeste 0 -- -- 39
2017-09-16 21:00:00 13.6 3 Norte 10 Noroeste 0 -- -- 35
2017-09-16 20:00:00 16.4 6 Noroeste 21 Noroeste 0 -- -- 31
2017-09-16 19:00:00 17.4 10 Noroeste 25 Noroeste 0 -- -- 30
2017-09-16 18:00:00 17.6 13 Noroeste 30 Noroeste 0 -- -- 29
2017-09-16 17:00:00 17.6 17 Oeste 31 Oeste 0 -- -- 28
2017-09-16 16:00:00 17.4 14 Oeste 33 Oeste 0 -- -- 32
2017-09-16 15:00:00 17.3 10 Noroeste 28 Oeste 0 -- -- 32
2017-09-16 14:00:00 17.3 12 Noroeste 29 Oeste 0 -- -- 33
2017-09-16 13:00:00 16.7 15 Oeste 27 Noroeste 0 -- -- 33
2017-09-16 12:00:00 17.1 5 Noroeste 15 Norte 0 -- -- 36
2017-09-16 11:00:00 15.2 4 Sudeste 10 Sudeste 0 -- -- 45
2017-09-16 10:00:00 12 3 Sudeste 6 Este 0 -- -- 54
2017-09-16 09:00:00 8.6 0 Calma 6 Norte 0 -- -- 69
2017-09-16 08:00:00 6.9 0 Calma 5 Norte 0 -- -- 73
2017-09-16 07:00:00 7.1 0 Calma 7 Noroeste 0 -- -- 72
2017-09-16 06:00:00 7.4 0 Calma 8 Norte 0 -- -- 72
2017-09-16 05:00:00 8.1 0 Calma 7 Sudeste 0 -- -- 69
2017-09-16 04:00:00 8.9 4 Noroeste 10 Norte 0 -- -- 65
2017-09-16 03:00:00 10.2 0 Calma 13 Nordeste 0 -- -- 60
2017-09-16 02:00:00 10.9 3 Norte 12 Este 0 -- -- 57
2017-09-16 01:00:00 11.9 6 Este 18 Este 0 -- -- 53
2017-09-16 00:00:00 12.3 4 Sudeste 13 Noroeste 0 -- -- 45
2017-09-15 23:00:00 13 5 Noroeste 12 Noroeste 0 -- -- 41
2017-09-15 22:00:00 14.1 3 Oeste 12 Nordeste 0 -- -- 40
2017-09-15 21:00:00 14.8 6 Noroeste 15 Noroeste 0 -- -- 39
2017-09-15 20:00:00 17.5 7 Noroeste 28 Noroeste 0 -- -- 33
2017-09-15 19:00:00 18 17 Noroeste 36 Oeste 0 -- -- 31
2017-09-15 18:00:00 19.2 15 Noroeste 32 Oeste 0 -- -- 29
2017-09-15 17:00:00 19.6 15 Noroeste 33 Norte 0 -- -- 30
2017-09-15 16:00:00 19.5 13 Noroeste 31 Oeste 0 -- -- 31
2017-09-15 15:00:00 18.9 14 Noroeste 32 Oeste 0 -- -- 38
2017-09-15 14:00:00 18.6 14 Noroeste 26 Noroeste 0 -- -- 39
2017-09-15 13:00:00 17.3 17 Oeste 36 Oeste 0 -- -- 44
2017-09-15 12:00:00 15.2 17 Oeste 40 Oeste 0 -- -- 53
2017-09-15 11:00:00 14.2 14 Oeste 31 Noroeste 0 -- -- 56
2017-09-15 10:00:00 12.5 16 Noroeste 31 Noroeste 0 -- -- 61
2017-09-15 09:00:00 10.8 15 Noroeste 33 Noroeste 0 -- -- 69
2017-09-15 08:00:00 10.7 11 Noroeste 29 Noroeste 0 -- -- 71
2017-09-15 07:00:00 11.3 12 Noroeste 35 Noroeste 0 -- -- 69
2017-09-15 06:00:00 12.3 8 Norte 19 Noroeste 0 -- -- 66
2017-09-15 05:00:00 13 10 Noroeste 28 Noroeste 0 -- -- 64
2017-09-15 04:00:00 13.7 6 Noroeste 15 Noroeste 0 -- -- 64
2017-09-15 03:00:00 14.5 8 Noroeste 33 Noroeste 0 -- -- 61
2017-09-15 02:00:00 15.4 3 Norte 14 Noroeste 0 -- -- 62
2017-09-15 01:00:00 16.6 5 Oeste 22 Este 0 -- -- 59
2017-09-15 00:00:00 18.5 9 Este 22 Este 0 -- -- 53
2017-09-14 23:00:00 18.5 2 Noroeste 10 Norte 0 -- -- 53
2017-09-14 22:00:00 19.5 4 Noroeste 8 Noroeste 0 -- -- 51
2017-09-14 21:00:00 20.9 4 Noroeste 20 Oeste 0 -- -- 47
2017-09-14 20:00:00 24.1 12 Oeste 22 Noroeste 0 -- -- 38
2017-09-14 19:00:00 25.2 13 Noroeste 26 Oeste 0 -- -- 35
2017-09-14 18:00:00 25.2 13 Noroeste 26 Norte 0 -- -- 35
2017-09-14 17:00:00 25.9 9 Noroeste 33 Noroeste 0 -- -- 36
2017-09-14 16:00:00 25.8 18 Oeste 34 Oeste 0 -- -- 33
2017-09-14 15:00:00 25.1 16 Oeste 32 Oeste 0 -- -- 36
2017-09-14 14:00:00 24.1 18 Oeste 32 Oeste 0 -- -- 41
2017-09-14 13:00:00 22.4 21 Oeste 36 Noroeste 0 -- -- 46
2017-09-14 12:00:00 21.5 18 Noroeste 37 Oeste 0 -- -- 48
2017-09-14 11:00:00 20 23 Oeste 39 Oeste 0 -- -- 54
2017-09-14 10:00:00 19.3 19 Oeste 34 Noroeste 0 -- -- 53
2017-09-14 09:00:00 19.1 14 Noroeste 23 Oeste 0 -- -- 54
2017-09-14 08:00:00 17.5 12 Noroeste 22 Noroeste 0 -- -- 59
2017-09-14 07:00:00 17.7 13 Noroeste 27 Noroeste 0 -- -- 58
2017-09-14 06:00:00 18.2 18 Noroeste 37 Oeste 0 -- -- 54
2017-09-14 05:00:00 18.5 16 Noroeste 40 Noroeste 0 -- -- 49
2017-09-14 04:00:00 19.2 22 Noroeste 42 Noroeste 0 -- -- 42
2017-09-14 03:00:00 21.5 23 Noroeste 40 Noroeste 0 -- -- 36
2017-09-14 02:00:00 20.4 5 Noroeste 14 Oeste 0 -- -- 35
2017-09-14 01:00:00 21.4 4 Noroeste 10 Noroeste 0 -- -- 38
2017-09-14 00:00:00 20 5 Noroeste 9 Norte 0 -- -- 43
2017-09-13 23:00:00 19.3 4 Noroeste 8 Noroeste 0 -- -- 46
2017-09-13 22:00:00 21.3 2 Noroeste 5 Sudeste 0 -- -- 41
2017-09-13 21:00:00 23.5 4 Norte 11 Sur 0 -- -- 36
2017-09-13 20:00:00 27.8 4 Sur 18 Sur 0 -- -- 28
2017-09-13 19:00:00 28.9 7 Sudoeste 20 Sur 0 -- -- 27
2017-09-13 18:00:00 29.2 8 Sudoeste 23 Sur 0 -- -- 27
2017-09-13 17:00:00 29.3 7 Sur 18 Sudeste 0 -- -- 27
2017-09-13 16:00:00 29 6 Sur 17 Sudoeste 0 -- -- 27
2017-09-13 15:00:00 27.3 6 Este 13 Sudeste 0 -- -- 29
2017-09-13 14:00:00 26.6 6 Oeste 17 Sudoeste 0 -- -- 31
2017-09-13 13:00:00 26 6 Sudoeste 17 Sur 0 -- -- 31
2017-09-13 12:00:00 25.3 3 Sudoeste 8 Sur 0 -- -- 31
2017-09-13 11:00:00 23.6 3 Noroeste 9 Oeste 0 -- -- 35
2017-09-13 10:00:00 22.8 0 Calma 2 Sudoeste 0 -- -- 44
2017-09-13 09:00:00 17.1 0 Calma 4 Norte 0 -- -- 56
2017-09-13 08:00:00 12.4 0 Calma 4 Norte 0 -- -- 70
2017-09-13 07:00:00 13 0 Calma 4 Norte 0 -- -- 67
2017-09-13 06:00:00 13.5 0 Calma 6 Norte 0 -- -- 65
2017-09-13 05:00:00 13.3 0 Calma 9 Norte 0 -- -- 65
2017-09-13 04:00:00 13.2 3 Norte 10 Sur 0 -- -- 64
2017-09-13 03:00:00 14.2 3 Nordeste 6 Norte 0 -- -- 59
2017-09-13 02:00:00 15.2 2 Noroeste 6 Norte 0 -- -- 56
2017-09-13 01:00:00 15.5 3 Norte 6 Norte 0 -- -- 53
2017-09-13 00:00:00 16.8 0 Calma 9 Norte 0 -- -- 53
2017-09-12 23:00:00 18.3 4 Noroeste 13 Norte 0 -- -- 47
2017-09-12 22:00:00 19.5 3 Noroeste 14 Noroeste 0 -- -- 45
2017-09-12 21:00:00 20.4 7 Noroeste 22 Noroeste 0 -- -- 42
2017-09-12 20:00:00 22.8 13 Noroeste 22 Noroeste 0 -- -- 37
2017-09-12 19:00:00 23.8 11 Noroeste 22 Noroeste 0 -- -- 34
2017-09-12 18:00:00 24.5 13 Noroeste 27 Norte 0 -- -- 33
2017-09-12 17:00:00 23.7 17 Oeste 32 Oeste 0 -- -- 34
2017-09-12 16:00:00 24.1 13 Noroeste 28 Noroeste 0 -- -- 34
2017-09-12 15:00:00 23.8 12 Noroeste 30 Norte 0 -- -- 34
2017-09-12 14:00:00 23 15 Noroeste 31 Noroeste 0 -- -- 32
2017-09-12 13:00:00 20.9 15 Noroeste 28 Noroeste 0 -- -- 35
2017-09-12 12:00:00 20.9 5 Norte 15 Noroeste 0 -- -- 40
2017-09-12 11:00:00 16.3 8 Oeste 15 Oeste 0 -- -- 58
2017-09-12 10:00:00 14.3 6 Este 20 Este 0 -- -- 66
2017-09-12 09:00:00 14 8 Noroeste 22 Oeste 0 -- -- 67
2017-09-12 08:00:00 14.1 7 Noroeste 19 Oeste 0 -- -- 67
2017-09-12 07:00:00 14.8 3 Oeste 23 Oeste 0 -- -- 64
2017-09-12 06:00:00 15 14 Oeste 26 Noroeste 0 -- -- 63
2017-09-12 05:00:00 15.7 10 Noroeste 35 Noroeste 0 -- -- 61
2017-09-12 04:00:00 16.5 21 Noroeste 31 Noroeste 0 -- -- 57
2017-09-12 03:00:00 17.5 16 Noroeste 35 Oeste 0 -- -- 54
2017-09-12 02:00:00 18.2 21 Oeste 33 Oeste 0 -- -- 50
2017-09-12 01:00:00 19.4 17 Oeste 32 Oeste 0 -- -- 46
2017-09-12 00:00:00 20.5 17 Oeste 35 Noroeste 0 -- -- 41
2017-09-11 23:00:00 21 8 Oeste 25 Noroeste 0 -- -- 39
2017-09-11 22:00:00 22.1 10 Oeste 28 Oeste 0 -- -- 39
2017-09-11 21:00:00 22.9 9 Oeste 30 Oeste 0 -- -- 38
2017-09-11 20:00:00 24.8 14 Oeste 34 Oeste 0 -- -- 36
2017-09-11 19:00:00 25.6 20 Oeste 36 Noroeste 0 -- -- 35
2017-09-11 18:00:00 26.4 18 Oeste 36 Oeste 0 -- -- 34
2017-09-11 17:00:00 26.5 16 Oeste 39 Noroeste 0 -- -- 34
2017-09-11 16:00:00 25.5 22 Noroeste 41 Oeste 0 -- -- 36
2017-09-11 15:00:00 24.5 20 Oeste 41 Noroeste 0 -- -- 40
2017-09-11 14:00:00 23.7 19 Noroeste 37 Noroeste 0 -- -- 44
2017-09-11 13:00:00 21.6 22 Noroeste 49 Oeste 0 -- -- 54
2017-09-11 12:00:00 19.2 27 Oeste 47 Oeste 0 -- -- 62
2017-09-11 11:00:00 17.7 30 Oeste 49 Oeste 0 -- -- 68
2017-09-11 10:00:00 17.4 23 Oeste 44 Oeste 0 -- -- 68
2017-09-11 09:00:00 17.5 8 Noroeste 36 Noroeste 0 -- -- 68
2017-09-11 08:00:00 16.6 16 Noroeste 27 Noroeste 0 -- -- 68
2017-09-11 07:00:00 16 4 Oeste 23 Noroeste 0 -- -- 70
2017-09-11 06:00:00 16.5 11 Noroeste 25 Noroeste 0 -- -- 66
2017-09-11 05:00:00 17.1 12 Oeste 22 Oeste 0 -- -- 60
2017-09-11 04:00:00 17.4 7 Oeste 24 Noroeste 0 -- -- 54
2017-09-11 03:00:00 18 5 Este 18 Sur 0 -- -- 46
2017-09-11 02:00:00 17.4 5 Sur 16 Noroeste 0 -- -- 41
2017-09-11 01:00:00 17.8 5 Oeste 13 Oeste 0 -- -- 38
2017-09-11 00:00:00 16.2 2 Oeste 8 Norte 0 -- -- 42
2017-09-10 23:00:00 17.4 4 Nordeste 9 Norte 0 -- -- 38
2017-09-10 22:00:00 18 6 Norte 12 Norte 0 -- -- 35
2017-09-10 21:00:00 18.5 9 Noroeste 26 Noroeste 0 -- -- 33
2017-09-10 20:00:00 19.7 13 Noroeste 30 Norte 0 -- -- 32
2017-09-10 19:00:00 21.5 12 Noroeste 27 Oeste 0 -- -- 29
2017-09-10 18:00:00 20.7 17 Oeste 30 Oeste 0 -- -- 30
2017-09-10 17:00:00 20.8 19 Noroeste 34 Noroeste 0 -- -- 31
2017-09-10 16:00:00 20.7 18 Noroeste 39 Oeste 0 -- -- 29
2017-09-10 15:00:00 19.8 17 Noroeste 35 Oeste 0 -- -- 34
2017-09-10 14:00:00 18.3 19 Oeste 39 Oeste 0 -- -- 39
2017-09-10 13:00:00 17.1 18 Oeste 34 Oeste 0 -- -- 42
2017-09-10 12:00:00 16 17 Noroeste 34 Noroeste 0 -- -- 42
2017-09-10 11:00:00 14.8 13 Noroeste 31 Oeste 0 -- -- 47
2017-09-10 10:00:00 12.9 14 Noroeste 30 Noroeste 0 -- -- 55
2017-09-10 09:00:00 11 11 Oeste 24 Oeste 0 -- -- 63
2017-09-10 08:00:00 9.3 9 Oeste 15 Oeste 0 -- -- 68
2017-09-10 07:00:00 10.1 10 Oeste 25 Noroeste 0 -- -- 63
2017-09-10 06:00:00 11.5 12 Noroeste 29 Noroeste 0 -- -- 57
2017-09-10 05:00:00 11.9 11 Norte 33 Norte 0 -- -- 54
2017-09-10 04:00:00 12.1 12 Norte 30 Norte 0 -- -- 52
2017-09-10 03:00:00 12.5 14 Norte 37 Noroeste 0 -- -- 53
2017-09-10 02:00:00 13.1 12 Norte 43 Norte 0 -- -- 49
2017-09-10 01:00:00 13.2 8 Norte 28 Norte 0 -- -- 54
2017-09-10 00:00:00 14.2 12 Norte 28 Norte 0 -- -- 53
2017-09-09 23:00:00 15.4 12 Norte 31 Noroeste 0 -- -- 42
2017-09-09 22:00:00 16.3 12 Noroeste 31 Noroeste 0 -- -- 35
2017-09-09 21:00:00 16.8 8 Noroeste 35 Noroeste 0 -- -- 33
2017-09-09 20:00:00 18.6 18 Noroeste 40 Oeste 0 -- -- 28
2017-09-09 19:00:00 19.8 17 Noroeste 48 Oeste 0 -- -- 29
2017-09-09 18:00:00 20 22 Noroeste 45 Noroeste 0 -- -- 30
2017-09-09 17:00:00 20.2 25 Noroeste 49 Noroeste 0 -- -- 31
2017-09-09 16:00:00 20.6 20 Noroeste 47 Sudoeste 0 -- -- 34
2017-09-09 15:00:00 20.1 20 Noroeste 41 Noroeste 0 -- -- 42
2017-09-09 14:00:00 19.2 19 Noroeste 41 Noroeste 0 -- -- 48
2017-09-09 13:00:00 16.5 19 Oeste 37 Oeste 0 -- -- 59
2017-09-09 12:00:00 15.4 22 Noroeste 37 Noroeste 0 -- -- 66
2017-09-09 11:00:00 15.2 18 Noroeste 45 Noroeste 0 -- -- 67
2017-09-09 10:00:00 14.2 24 Noroeste 49 Oeste 0 -- -- 71
2017-09-09 09:00:00 14.3 25 Oeste 52 Noroeste 0 -- -- 68
2017-09-09 08:00:00 14.6 31 Noroeste 52 Noroeste 0 -- -- 63
2017-09-09 07:00:00 15.4 31 Noroeste 59 Oeste 0 -- -- 56
2017-09-09 06:00:00 17.3 30 Noroeste 49 Noroeste 0 -- -- 47
2017-09-09 05:00:00 18.6 25 Noroeste 45 Noroeste 0 -- -- 40
2017-09-09 04:00:00 18.9 22 Noroeste 36 Noroeste 0 -- -- 41
2017-09-09 03:00:00 19.1 18 Noroeste 42 Noroeste 0 -- -- 36
2017-09-09 02:00:00 20.2 19 Noroeste 34 Noroeste 0 -- -- 28
2017-09-09 01:00:00 21 14 Noroeste 26 Noroeste 0 -- -- 22
2017-09-09 00:00:00 21.4 12 Oeste 22 Noroeste 0 -- -- 20
2017-09-08 23:00:00 22.4 12 Noroeste 24 Noroeste 0 -- -- 19
2017-09-08 22:00:00 22.3 6 Noroeste 10 Noroeste 0 -- -- 22
2017-09-08 21:00:00 24.3 5 Oeste 11 Noroeste 0 -- -- 21
2017-09-08 20:00:00 27.2 9 Noroeste 22 Noroeste 0 -- -- 20
2017-09-08 19:00:00 28.4 14 Noroeste 25 Oeste 0 -- -- 17
2017-09-08 18:00:00 29.9 11 Noroeste 29 Sudeste 0 -- -- 17
2017-09-08 17:00:00 30.8 5 Sur 18 Sudoeste 0 -- -- 19
2017-09-08 16:00:00 29.3 9 Sur 19 Sur 0 -- -- 20
2017-09-08 15:00:00 28.8 8 Sur 18 Sur 0 -- -- 21
2017-09-08 14:00:00 28 6 Sudoeste 16 Sudoeste 0 -- -- 21
2017-09-08 13:00:00 27.4 5 Sudoeste 13 Sudoeste 0 -- -- 22
2017-09-08 12:00:00 26.6 3 Sudoeste 9 Sur 0 -- -- 23
2017-09-08 11:00:00 24.5 2 Oeste 6 Oeste 0 -- -- 26
2017-09-08 10:00:00 21.2 0 Calma 2 Sudoeste 0 -- -- 37
2017-09-08 09:00:00 15.7 0 Calma 2 Norte 0 -- -- 46
2017-09-08 08:00:00 12.4 0 Calma 3 Norte 0 -- -- 52
2017-09-08 07:00:00 12.5 0 Calma 4 Norte 0 -- -- 51
2017-09-08 06:00:00 13.2 0 Calma 3 Norte 0 -- -- 49
2017-09-08 05:00:00 13.6 2 Norte 5 Norte 0 -- -- 44
2017-09-08 04:00:00 14.7 0 Calma 6 Norte 0 -- -- 42
2017-09-08 03:00:00 15.2 0 Calma 7 Norte 0 -- -- 40
2017-09-08 02:00:00 16.1 0 Calma 7 Norte 0 -- -- 38
2017-09-08 01:00:00 17.4 0 Calma 6 Noroeste 0 -- -- 33
2017-09-08 00:00:00 18.8 4 Norte 14 Noroeste 0 -- -- 31
2017-09-07 23:00:00 19.3 6 Norte 14 Noroeste 0 -- -- 30
2017-09-07 22:00:00 21.6 7 Noroeste 18 Noroeste 0 -- -- 27
2017-09-07 21:00:00 22.4 9 Noroeste 19 Oeste 0 -- -- 26
2017-09-07 20:00:00 25 9 Noroeste 22 Noroeste 0 -- -- 24
2017-09-07 19:00:00 26.7 14 Noroeste 23 Noroeste 0 -- -- 22
2017-09-07 18:00:00 28.4 12 Noroeste 25 Noroeste 0 -- -- 19
2017-09-07 17:00:00 29.2 6 Oeste 17 Oeste 0 -- -- 25
2017-09-07 16:00:00 27.7 10 Noroeste 25 Noroeste 0 -- -- 24
2017-09-07 15:00:00 27.7 7 Noroeste 23 Noroeste 0 -- -- 24
2017-09-07 14:00:00 27.4 5 Oeste 11 Oeste 0 -- -- 22
2017-09-07 13:00:00 26.8 4 Sudoeste 10 Oeste 0 -- -- 23
2017-09-07 12:00:00 25.9 3 Sudoeste 9 Oeste 0 -- -- 26
2017-09-07 11:00:00 23.1 4 Noroeste 9 Noroeste 0 -- -- 30
2017-09-07 10:00:00 22.3 2 Sur 4 Sudeste 0 -- -- 43
2017-09-07 09:00:00 17.3 3 Norte 7 Norte 0 -- -- 54
2017-09-07 08:00:00 13.4 0 Calma 5 Este 0 -- -- 61
2017-09-07 07:00:00 15.2 2 Norte 27 Noroeste 0 -- -- 39
2017-09-07 06:00:00 17.3 14 Noroeste 23 Noroeste 0 -- -- 40
2017-09-07 05:00:00 17 0 Calma 12 Norte 0 -- -- 50
2017-09-07 04:00:00 17.8 8 Noroeste 20 Noroeste 0 -- -- 41
2017-09-07 03:00:00 18.4 11 Noroeste 26 Noroeste 0 -- -- 49
2017-09-07 02:00:00 19.4 12 Noroeste 23 Noroeste 0 -- -- 48
2017-09-07 01:00:00 19.6 6 Norte 15 Oeste 0 -- -- 53
2017-09-07 00:00:00 21.4 8 Noroeste 21 Noroeste 0 -- -- 48
2017-09-06 23:00:00 22.3 6 Noroeste 26 Noroeste 0 -- -- 50
2017-09-06 22:00:00 23.6 12 Noroeste 20 Noroeste 0 -- -- 48
2017-09-06 21:00:00 25.1 10 Noroeste 21 Norte 0 -- -- 44
2017-09-06 20:00:00 28.3 8 Noroeste 19 Noroeste 0 -- -- 32
2017-09-06 19:00:00 29.4 13 Noroeste 26 Oeste 0 -- -- 31
2017-09-06 18:00:00 30 14 Oeste 21 Oeste 0 -- -- 31
2017-09-06 17:00:00 30.7 10 Noroeste 22 Oeste 0 -- -- 32
2017-09-06 16:00:00 30.8 5 Oeste 18 Sudoeste 0 -- -- 32
2017-09-06 15:00:00 31.3 4 Sudeste 15 Sudoeste 0 -- -- 32
2017-09-06 14:00:00 30.2 5 Sudeste 13 Nordeste 0 -- -- 35
2017-09-06 13:00:00 29.2 4 Sudeste 15 Este 0 -- -- 36
2017-09-06 12:00:00 26.2 10 Este 21 Este 0 -- -- 44
2017-09-06 11:00:00 24.4 13 Este 22 Este 0 -- -- 49
2017-09-06 10:00:00 23.4 10 Este 21 Este 0 -- -- 51
2017-09-06 09:00:00 23.4 2 Nordeste 6 Norte 0 -- -- 49
2017-09-06 08:00:00 17.9 0 Calma 4 Noroeste 0 -- -- 62
2017-09-06 07:00:00 18 0 Calma 6 Norte 0 -- -- 63
2017-09-06 06:00:00 19.1 3 Noroeste 10 Nordeste 0 -- -- 57
2017-09-06 05:00:00 19.9 3 Nordeste 8 Nordeste 0 -- -- 55
2017-09-06 04:00:00 22 4 Nordeste 16 Este 0 -- -- 48
2017-09-06 03:00:00 20.6 6 Nordeste 14 Este 0 -- -- 48
2017-09-06 02:00:00 21.2 4 Norte 10 Noroeste 0 -- -- 47
2017-09-06 01:00:00 20.5 0 Calma 8 Noroeste 0 -- -- 55
2017-09-06 00:00:00 21 2 Norte 6 Noroeste 0 -- -- 54
2017-09-05 23:00:00 22 0 Calma 5 Norte 0 -- -- 56
2017-09-05 22:00:00 25 0 Calma 4 Sudeste 0 -- -- 48
2017-09-05 21:00:00 26.2 0 Calma 9 Sur 0 -- -- 44
2017-09-05 20:00:00 29.4 6 Sudoeste 15 Sur 0 -- -- 36
2017-09-05 19:00:00 30.6 6 Sudoeste 18 Sur 0 -- -- 35
2017-09-05 18:00:00 30.6 7 Sudoeste 21 Sur 0 -- -- 35
2017-09-05 17:00:00 30.1 7 Sur 18 Sur 0 -- -- 36
2017-09-05 16:00:00 29.2 7 Oeste 21 Sur 0 -- -- 39
2017-09-05 15:00:00 29.4 5 Sur 20 Sur 0 -- -- 38
2017-09-05 14:00:00 27.1 8 Sudeste 14 Sur 0 -- -- 43
2017-09-05 13:00:00 26.9 5 Sudoeste 14 Sudoeste 0 -- -- 44
2017-09-05 12:00:00 26.3 4 Sudoeste 14 Sudeste 0 -- -- 46
2017-09-05 11:00:00 25.2 0 Calma 7 Este 0 -- -- 45
2017-09-05 10:00:00 24.1 0 Calma 4 Sudeste 0 -- -- 49
2017-09-05 09:00:00 19.6 0 Calma 5 Norte 0 -- -- 61
2017-09-05 08:00:00 14.9 0 Calma 8 Este 0 -- -- 76
2017-09-05 07:00:00 16.1 0 Calma 7 Norte 0 -- -- 70
2017-09-05 06:00:00 15.6 2 Noroeste 6 Noroeste 0 -- -- 72
2017-09-05 05:00:00 17.2 2 Norte 10 Sudeste 0 -- -- 65
2017-09-05 04:00:00 17.5 3 Norte 8 Norte 0 -- -- 63
2017-09-05 03:00:00 18.1 0 Calma 8 Oeste 0 -- -- 61
2017-09-05 02:00:00 17.9 3 Noroeste 6 Norte 0 -- -- 63
2017-09-05 01:00:00 19 0 Calma 6 Norte 0 -- -- 60
2017-09-05 00:00:00 19.6 2 Noroeste 5 Oeste 0 -- -- 58
2017-09-04 23:00:00 20.5 0 Calma 6 Norte 0 -- -- 57
2017-09-04 22:00:00 21.6 3 Nordeste 13 Noroeste 0 -- -- 53
2017-09-04 21:00:00 23.4 4 Noroeste 18 Noroeste 0 -- -- 47
2017-09-04 20:00:00 26.1 9 Noroeste 19 Oeste 0 -- -- 40
2017-09-04 19:00:00 27.8 8 Noroeste 17 Noroeste 0 -- -- 36
2017-09-04 18:00:00 28.1 8 Noroeste 18 Oeste 0 -- -- 35
2017-09-04 17:00:00 27.5 3 Sudeste 12 Oeste 0 -- -- 35
2017-09-04 16:00:00 27.6 3 Sudeste 13 Nordeste 0 -- -- 35
2017-09-04 15:00:00 26.5 4 Oeste 22 Noroeste 0 -- -- 39
2017-09-04 14:00:00 23.6 17 Oeste 31 Oeste 0 -- -- 45
2017-09-04 13:00:00 22.9 17 Oeste 28 Oeste 0 -- -- 48
2017-09-04 12:00:00 21.9 13 Noroeste 30 Noroeste 0 -- -- 49
2017-09-04 11:00:00 20.6 16 Noroeste 32 Noroeste 0 -- -- 54
2017-09-04 10:00:00 19.2 18 Noroeste 34 Noroeste 0 -- -- 59
2017-09-04 09:00:00 18.4 9 Noroeste 20 Noroeste 0 -- -- 63
2017-09-04 08:00:00 16.6 5 Sudeste 28 Norte 0 -- -- 70
2017-09-04 07:00:00 16.8 4 Sur 27 Noroeste 0 -- -- 68
2017-09-04 06:00:00 17.3 10 Noroeste 37 Noroeste 0 -- -- 63
2017-09-04 05:00:00 18.3 14 Noroeste 41 Noroeste 0 -- -- 52
2017-09-04 04:00:00 18.9 23 Noroeste 41 Noroeste 0 -- -- 45
2017-09-04 03:00:00 19.6 16 Noroeste 36 Noroeste 0 -- -- 39
2017-09-04 02:00:00 20.6 17 Noroeste 42 Noroeste 0 -- -- 33
2017-09-04 01:00:00 21.5 13 Noroeste 29 Noroeste 0 -- -- 28
2017-09-04 00:00:00 23 19 Noroeste 29 Noroeste 0 -- -- 24
2017-09-03 23:00:00 22.5 8 Noroeste 15 Noroeste 0 -- -- 27
2017-09-03 22:00:00 23.3 5 Noroeste 9 Noroeste 0 -- -- 25
2017-09-03 21:00:00 24.8 5 Noroeste 14 Noroeste 0 -- -- 24
2017-09-03 20:00:00 28.4 7 Noroeste 21 Noroeste 0 -- -- 19
2017-09-03 19:00:00 29.6 11 Oeste 28 Noroeste 0 -- -- 19
2017-09-03 18:00:00 29.8 14 Noroeste 27 Oeste 0 -- -- 17
2017-09-03 17:00:00 30.3 11 Noroeste 30 Oeste 0 -- -- 18
2017-09-03 16:00:00 29 15 Noroeste 28 Noroeste 0 -- -- 19
2017-09-03 15:00:00 28.4 11 Noroeste 28 Noroeste 0 -- -- 19
2017-09-03 14:00:00 27.4 9 Noroeste 26 Oeste 0 -- -- 21
2017-09-03 13:00:00 26.7 10 Noroeste 25 Noroeste 0 -- -- 24
2017-09-03 12:00:00 25 12 Oeste 22 Oeste 0 -- -- 26
2017-09-03 11:00:00 24.8 5 Oeste 12 Sur 0 -- -- 26
2017-09-03 10:00:00 23.7 0 Calma 4 Noroeste 0 -- -- 34
2017-09-03 09:00:00 16.8 0 Calma 8 Norte 0 -- -- 48
2017-09-03 08:00:00 16.2 3 Noroeste 10 Norte 0 -- -- 47
2017-09-03 07:00:00 15.8 3 Norte 9 Oeste 0 -- -- 52
2017-09-03 06:00:00 18.8 5 Noroeste 10 Norte 0 -- -- 35
2017-09-03 05:00:00 15.5 3 Noroeste 7 Noroeste 0 -- -- 47
2017-09-03 04:00:00 15.9 2 Norte 6 Noroeste 0 -- -- 45
2017-09-03 03:00:00 14.9 2 Sudoeste 6 Norte 0 -- -- 52
2017-09-03 02:00:00 15.1 0 Calma 6 Norte 0 -- -- 53
2017-09-03 01:00:00 15.5 0 Calma 6 Norte 0 -- -- 48
2017-09-03 00:00:00 16 0 Calma 9 Noroeste 0 -- -- 50
2017-09-02 23:00:00 16.7 0 Calma 6 Norte 0 -- -- 50
2017-09-02 22:00:00 19.4 0 Calma 7 Noroeste 0 -- -- 40
2017-09-02 21:00:00 22.7 0 Calma 9 Sudoeste 0 -- -- 31
2017-09-02 20:00:00 26.3 5 Sudoeste 14 Sur 0 -- -- 26
2017-09-02 19:00:00 27.2 5 Sudoeste 15 Sur 0 -- -- 27
2017-09-02 18:00:00 27.8 4 Sudoeste 17 Sudoeste 0 -- -- 28
2017-09-02 17:00:00 27.2 5 Sur 17 Sudeste 0 -- -- 29
2017-09-02 16:00:00 26.1 4 Sudeste 14 Oeste 0 -- -- 32
2017-09-02 15:00:00 24.3 7 Sudeste 15 Este 0 -- -- 33
2017-09-02 14:00:00 23.4 5 Sur 11 Sudeste 0 -- -- 36
2017-09-02 13:00:00 22.3 4 Sudoeste 10 Sudoeste 0 -- -- 37
2017-09-02 12:00:00 21.3 2 Sur 9 Sudeste 0 -- -- 40
2017-09-02 11:00:00 19 3 Sudeste 10 Sudeste 0 -- -- 45
2017-09-02 10:00:00 16.2 2 Oeste 6 Oeste 0 -- -- 54
2017-09-02 09:00:00 13.7 0 Calma 5 Sudoeste 0 -- -- 65
2017-09-02 08:00:00 9.5 0 Calma 4 Nordeste 0 -- -- 80
2017-09-02 07:00:00 9.3 0 Calma 6 Norte 0 -- -- 78
2017-09-02 06:00:00 10 3 Noroeste 8 Noroeste 0 -- -- 75
2017-09-02 05:00:00 10.6 3 Norte 6 Norte 0 -- -- 71
2017-09-02 04:00:00 11.3 0 Calma 5 Noroeste 0 -- -- 68
2017-09-02 03:00:00 12.7 0 Calma 7 Noroeste 0 -- -- 61
2017-09-02 02:00:00 13.8 3 Oeste 9 Sudeste 0 -- -- 57
2017-09-02 01:00:00 15.7 3 Sudeste 13 Oeste 0 -- -- 48
2017-09-02 00:00:00 16.7 10 Noroeste 15 Noroeste 0 -- -- 46
2017-09-01 23:00:00 17.3 0 Calma 17 Noroeste 0 -- -- 45
2017-09-01 22:00:00 18.4 8 Noroeste 24 Norte 0 -- -- 43
2017-09-01 21:00:00 20 13 Noroeste 26 Noroeste 0 -- -- 41
2017-09-01 20:00:00 22.9 14 Noroeste 30 Noroeste 0 -- -- 32
2017-09-01 19:00:00 24.5 15 Noroeste 29 Noroeste 0 -- -- 29
2017-09-01 18:00:00 25.6 14 Noroeste 30 Oeste 0 -- -- 27
2017-09-01 17:00:00 25.3 14 Oeste 26 Noroeste 0 -- -- 28
2017-09-01 16:00:00 26.1 10 Oeste 24 Oeste 0 -- -- 30
2017-09-01 15:00:00 25.1 13 Noroeste 29 Norte 0 -- -- 35
2017-09-01 14:00:00 24.9 9 Oeste 20 Oeste 0 -- -- 37
2017-09-01 13:00:00 24.5 5 Sudeste 12 Este 0 -- -- 40
2017-09-01 12:00:00 23.7 4 Nordeste 16 Nordeste 0 -- -- 44
2017-09-01 11:00:00 20.5 9 Este 24 Este 0 -- -- 53
2017-09-01 10:00:00 18.5 9 Este 18 Este 0 -- -- 62
2017-09-01 09:00:00 17.7 4 Este 22 Nordeste 0 -- -- 65
2017-09-01 08:00:00 15.8 9 Este 20 Nordeste 0 -- -- 71
2017-09-01 07:00:00 15.8 3 Nordeste 12 Este 0 -- -- 70
2017-09-01 06:00:00 14.6 2 Sudeste 4 Sudeste 0 -- -- 79
2017-09-01 05:00:00 14.9 3 Nordeste 6 Noroeste 0 -- -- 77
2017-09-01 04:00:00 16 4 Noroeste 6 Noroeste 0 -- -- 70
2017-09-01 03:00:00 18 3 Norte 14 Este 0 -- -- 62
2017-09-01 02:00:00 18.3 9 Este 16 Nordeste 0 -- -- 61
2017-09-01 01:00:00 18.7 0 Calma 12 Noroeste 0 -- -- 60
2017-09-01 00:00:00 19 6 Noroeste 15 Noroeste 0 -- -- 60
2017-08-31 23:00:00 20 8 Noroeste 18 Noroeste 0 -- -- 55
2017-08-31 22:00:00 20.8 8 Noroeste 14 Oeste 0 -- -- 54
2017-08-31 21:00:00 22 6 Noroeste 17 Noroeste 0 -- -- 51
2017-08-31 20:00:00 24.6 9 Noroeste 22 Oeste 0 -- -- 43
2017-08-31 19:00:00 26.5 5 Oeste 19 Oeste 0 -- -- 39
2017-08-31 18:00:00 27.7 4 Oeste 14 Oeste 0 -- -- 38
2017-08-31 17:00:00 27.5 4 Sudoeste 13 Sudoeste 0 -- -- 38
2017-08-31 16:00:00 24.5 7 Oeste 17 Sudoeste 0 -- -- 45
2017-08-31 15:00:00 26.2 6 Sudeste 17 Sudoeste 0 -- -- 42
2017-08-31 14:00:00 23.6 6 Sur 12 Sudoeste 0 -- -- 48
2017-08-31 13:00:00 24 6 Sudeste 12 Sudeste 0 -- -- 48
2017-08-31 12:00:00 23.2 5 Sudeste 13 Sudeste 0 -- -- 52
2017-08-31 11:00:00 21.1 6 Sudeste 12 Sudeste 0 -- -- 58
2017-08-31 10:00:00 20 4 Oeste 8 Oeste 0 -- -- 63
2017-08-31 09:00:00 17 3 Sudoeste 9 Norte 0 -- -- 75
2017-08-31 08:00:00 15.8 7 Norte 17 Norte 0 -- -- 78
2017-08-31 07:00:00 15.7 8 Noroeste 17 Noroeste 0 -- -- 79
2017-08-31 06:00:00 16.9 6 Noroeste 20 Noroeste 0 -- -- 71
2017-08-31 05:00:00 17.6 9 Noroeste 26 Oeste 0 -- -- 66
2017-08-31 04:00:00 17.7 9 Oeste 13 Oeste 0 -- -- 67
2017-08-31 03:00:00 17.3 5 Noroeste 21 Oeste 0 -- -- 69
2017-08-31 02:00:00 17.5 8 Noroeste 28 Noroeste 0 -- -- 69
2017-08-31 01:00:00 16.3 5 Noroeste 26 Norte 0.4 -- -- 82
2017-08-31 00:00:00 18 13 Noroeste 27 Noroeste 0 -- -- 68
2017-08-30 23:00:00 19.1 0 Calma 3 Norte 0 -- -- 64
2017-08-30 22:00:00 19.9 0 Calma 5 Sur 0 -- -- 54
2017-08-30 21:00:00 21.1 3 Sudoeste 10 Sur 0 -- -- 51
2017-08-30 20:00:00 22 5 Sudoeste 17 Sur 0 -- -- 47
2017-08-30 19:00:00 22.7 8 Sur 23 Sudoeste 0 -- -- 45
2017-08-30 18:00:00 23.1 7 Sudoeste 27 Sudeste 0 -- -- 43
2017-08-30 17:00:00 23.6 9 Sudoeste 25 Sur 0 -- -- 43
2017-08-30 16:00:00 24.9 10 Sudoeste 26 Sur 0 -- -- 40
2017-08-30 15:00:00 24.8 8 Sudoeste 24 Sur 0 -- -- 42
2017-08-30 14:00:00 23.8 9 Sur 21 Sur 0 -- -- 49
2017-08-30 13:00:00 23.5 8 Sur 17 Sudoeste 0 -- -- 48
2017-08-30 12:00:00 21.9 4 Sudoeste 11 Sudoeste 0 -- -- 56
2017-08-30 11:00:00 20.6 4 Noroeste 9 Noroeste 0 -- -- 62
2017-08-30 10:00:00 18.8 0 Calma 8 Sudoeste 0 -- -- 74
2017-08-30 09:00:00 16.3 2 Sudoeste 10 Este 0 -- -- 84
2017-08-30 08:00:00 16 6 Este 10 Este 0 -- -- 85
2017-08-30 07:00:00 16.3 0 Calma 7 Este 0 -- -- 83
2017-08-30 06:00:00 16.5 3 Este 10 Este 0 -- -- 80
2017-08-30 05:00:00 16.4 6 Este 13 Este 0 -- -- 80
2017-08-30 04:00:00 16.5 5 Este 14 Este 0 -- -- 80
2017-08-30 03:00:00 16.3 5 Sudeste 12 Sudeste 0 -- -- 77
2017-08-30 02:00:00 16 0 Calma 5 Sur 0 -- -- 79
2017-08-30 01:00:00 16.8 0 Calma 8 Norte 0 -- -- 72
2017-08-30 00:00:00 16.6 0 Calma 4 Nordeste 0 -- -- 76
2017-08-29 23:00:00 17.2 0 Calma 4 Oeste 0 -- -- 71
2017-08-29 22:00:00 17.6 2 Noroeste 11 Este 0 -- -- 67
2017-08-29 21:00:00 19 6 Este 23 Este 0 -- -- 59
2017-08-29 20:00:00 21.2 5 Sudeste 16 Sur 0 -- -- 52
2017-08-29 19:00:00 23.3 7 Sudoeste 22 Sur 0 -- -- 45
2017-08-29 18:00:00 24.5 9 Sur 21 Sudoeste 0 -- -- 42
2017-08-29 17:00:00 25.1 7 Sur 24 Sudeste 0 -- -- 38
2017-08-29 16:00:00 24.4 6 Sudeste 21 Sudeste 0 -- -- 41
2017-08-29 15:00:00 22.4 5 Sur 15 Sudeste 0 -- -- 51
2017-08-29 14:00:00 22 8 Este 15 Este 0 -- -- 53
2017-08-29 13:00:00 20.7 2 Este 13 Este 0 -- -- 61
2017-08-29 12:00:00 20.5 4 Este 14 Este 0 -- -- 63
2017-08-29 11:00:00 18.8 7 Este 15 Este 0 -- -- 70
2017-08-29 10:00:00 16.5 8 Este 16 Este 0 -- -- 81
2017-08-29 09:00:00 15.9 9 Este 15 Este 0 -- -- 83
2017-08-29 08:00:00 15.3 3 Nordeste 7 Sudeste 0 -- -- 86
2017-08-29 07:00:00 14.8 3 Sudeste 11 Este 0 -- -- 90
2017-08-29 06:00:00 15.2 7 Este 12 Este 0 -- -- 86
2017-08-29 05:00:00 14.5 0 Calma 5 Norte 0 -- -- 91
2017-08-29 04:00:00 14.8 0 Calma 13 Este 0 -- -- 89
2017-08-29 03:00:00 15 5 Este 18 Este 0 -- -- 89
2017-08-29 02:00:00 15.5 10 Este 20 Este 0 -- -- 88
2017-08-29 01:00:00 15.1 2 Sudeste 13 Este 0 -- -- 88
2017-08-29 00:00:00 15.5 3 Nordeste 21 Este 0 -- -- 88
2017-08-28 23:00:00 16 12 Este 22 Este 0 -- -- 86
2017-08-28 22:00:00 16.1 12 Este 21 Este 0 -- -- 90
2017-08-28 21:00:00 16.1 2 Noroeste 8 Este 0 -- -- 90
2017-08-28 20:00:00 16.5 5 Este 16 Sudeste 0.4 -- -- 87
2017-08-28 19:00:00 17.1 7 Este 14 Sudeste 0.6 -- -- 86
2017-08-28 18:00:00 18.2 2 Este 13 Este 0.2 -- -- 82
2017-08-28 17:00:00 19.9 3 Este 12 Sudeste 0 -- -- 68
2017-08-28 16:00:00 18.3 2 Sudeste 8 Nordeste 0.8 -- -- 90
2017-08-28 15:00:00 15 4 Nordeste 28 Oeste 13.6 -- -- 96
2017-08-28 14:00:00 15.4 8 Noroeste 22 Norte 13.4 -- -- 95
2017-08-28 13:00:00 16.1 18 Oeste 31 Noroeste 4.8 -- -- 91
2017-08-28 12:00:00 16.4 10 Este 22 Sudeste 3.8 -- -- 93
2017-08-28 11:00:00 17.3 4 Nordeste 21 Este 5.2 -- -- 85
2017-08-28 10:00:00 17.8 7 Este 22 Este 1.4 -- -- 82
2017-08-28 09:00:00 18 8 Este 19 Este 0 -- -- 77
2017-08-28 08:00:00 17.8 9 Este 21 Este 0.2 -- -- 76
2017-08-28 07:00:00 17.6 5 Este 19 Sudeste 0.8 -- -- 77
2017-08-28 06:00:00 19 8 Este 19 Este 0 -- -- 65
2017-08-28 05:00:00 18.8 4 Este 14 Sudeste 0 -- -- 67
2017-08-28 04:00:00 17.4 0 Calma 27 Oeste 0 -- -- 80
2017-08-28 03:00:00 19.1 6 Sudoeste 23 Oeste 0.2 -- -- 72
2017-08-28 02:00:00 19.9 5 Este 17 Este 0 -- -- 63
2017-08-28 01:00:00 19.9 6 Este 21 Este 0 -- -- 63
2017-08-28 00:00:00 20.1 11 Este 27 Este 0 -- -- 65
2017-08-27 23:00:00 20.2 15 Este 29 Nordeste 0 -- -- 64
2017-08-27 22:00:00 20.8 13 Este 26 Este 0 -- -- 63
2017-08-27 21:00:00 21.7 12 Este 23 Nordeste 0 -- -- 58
2017-08-27 20:00:00 20.6 5 Norte 40 Sudeste 0 -- -- 62
2017-08-27 19:00:00 23.2 18 Este 36 Sudeste 0 -- -- 51
2017-08-27 18:00:00 23.3 11 Este 25 Este 0 -- -- 56
2017-08-27 17:00:00 22.9 10 Sudeste 27 Sudeste 0 -- -- 55
2017-08-27 16:00:00 23.6 7 Sudeste 15 Sudeste 0.2 -- -- 49
2017-08-27 15:00:00 23 7 Este 16 Este 0 -- -- 56
2017-08-27 14:00:00 21 3 Nordeste 13 Este 0 -- -- 72
2017-08-27 13:00:00 18.4 4 Nordeste 25 Sudoeste 7.6 -- -- 86
2017-08-27 12:00:00 21 3 Nordeste 18 Este 0 -- -- 65
2017-08-27 11:00:00 21.2 5 Este 12 Sur 0.2 -- -- 61
2017-08-27 10:00:00 22.1 5 Sur 12 Este 0 -- -- 54
2017-08-27 09:00:00 20.9 6 Oeste 23 Sudeste 0 -- -- 58
2017-08-27 08:00:00 21.4 13 Este 28 Este 0 -- -- 55
2017-08-27 07:00:00 20.1 7 Nordeste 19 Este 0.4 -- -- 63
2017-08-27 06:00:00 23 12 Este 20 Este 0 -- -- 41
2017-08-27 05:00:00 22.4 9 Este 15 Este 0 -- -- 39
2017-08-27 04:00:00 23.2 5 Este 19 Este 0 -- -- 37
2017-08-27 03:00:00 23.7 5 Este 16 Este 0 -- -- 34
2017-08-27 02:00:00 23.4 6 Este 20 Nordeste 0 -- -- 35
2017-08-27 01:00:00 23.4 7 Este 26 Este 0 -- -- 34
2017-08-27 00:00:00 24.7 13 Este 28 Norte 0 -- -- 32
2017-08-26 23:00:00 24.7 11 Este 22 Este 0 -- -- 32
2017-08-26 22:00:00 25.3 9 Este 17 Este 0 -- -- 31
2017-08-26 21:00:00 25.4 3 Este 9 Este 0 -- -- 30
2017-08-26 20:00:00 26.7 5 Oeste 21 Oeste 0 -- -- 28
2017-08-26 19:00:00 27.1 0 Calma 10 Sur 0 -- -- 27
2017-08-26 18:00:00 27.3 4 Oeste 22 Sudoeste 0 -- -- 27
2017-08-26 17:00:00 27 6 Oeste 32 Oeste 0 -- -- 27
2017-08-26 16:00:00 27.6 16 Oeste 39 Sudoeste 0 -- -- 25
2017-08-26 15:00:00 28.6 10 Sudoeste 24 Noroeste 0 -- -- 23
2017-08-26 14:00:00 30.4 8 Oeste 23 Sur 0 -- -- 22
2017-08-26 13:00:00 27.5 4 Oeste 14 Sudoeste 0 -- -- 25
2017-08-26 12:00:00 28.1 4 Sur 12 Sudoeste 0 -- -- 25
2017-08-26 11:00:00 27.5 4 Sudeste 9 Este 0 -- -- 25
2017-08-26 10:00:00 27.3 2 Oeste 6 Sudeste 0 -- -- 26
2017-08-26 09:00:00 23.3 0 Calma 3 Norte 0 -- -- 33
2017-08-26 08:00:00 17.8 0 Calma 4 Norte 0 -- -- 41
2017-08-26 07:00:00 18 0 Calma 5 Norte 0 -- -- 39
2017-08-26 06:00:00 18.7 0 Calma 6 Oeste 0 -- -- 39
2017-08-26 05:00:00 18.7 0 Calma 6 Norte 0 -- -- 39
2017-08-26 04:00:00 18.8 3 Este 9 Norte 0 -- -- 40
2017-08-26 03:00:00 19.5 0 Calma 5 Noroeste 0 -- -- 39
2017-08-26 02:00:00 20.7 0 Calma 4 Sudoeste 0 -- -- 36
2017-08-26 01:00:00 21 0 Calma 7 Norte 0 -- -- 35
2017-08-26 00:00:00 22 2 Noroeste 6 Norte 0 -- -- 34